createdAt,value
2023-01-23T00:01:29.667Z,27.00
2023-01-23T00:03:57.607Z,29.77
2023-01-23T00:06:24.767Z,29.47
2023-01-23T00:08:51.515Z,24.53
2023-01-23T00:11:21.606Z,29.37
2023-01-23T00:13:48.647Z,25.60
2023-01-23T00:16:17.823Z,31.63
2023-01-23T00:18:44.925Z,30.80
2023-01-23T00:21:19.216Z,27.40
2023-01-23T00:23:49.759Z,26.20
2023-01-23T00:26:19.255Z,30.90
2023-01-23T00:28:47.425Z,33.10
2023-01-23T00:31:17.333Z,26.90
2023-01-23T00:33:44.650Z,33.23
2023-01-23T00:36:12.868Z,29.63
2023-01-23T00:38:40.037Z,33.00
2023-01-23T00:41:07.012Z,30.63
2023-01-23T00:43:33.920Z,28.20
2023-01-23T00:46:00.675Z,26.87
2023-01-23T00:48:27.601Z,29.03
2023-01-23T00:50:54.526Z,33.23
2023-01-23T00:53:21.747Z,33.27
2023-01-23T00:55:48.443Z,35.43
2023-01-23T00:58:15.201Z,33.10
2023-01-23T01:00:41.847Z,35.80
2023-01-23T01:03:08.913Z,31.97
2023-01-23T01:05:35.697Z,29.80
2023-01-23T01:08:02.365Z,34.17
2023-01-23T01:10:29.696Z,34.03
2023-01-23T01:12:57.681Z,33.17
2023-01-23T01:15:24.955Z,35.73
2023-01-23T01:17:54.139Z,36.60
2023-01-23T01:20:23.700Z,32.73
2023-01-23T01:22:50.941Z,38.30
2023-01-23T01:25:18.333Z,33.67
2023-01-23T01:27:45.640Z,36.27
2023-01-23T01:30:13.088Z,33.40
2023-01-23T01:32:41.653Z,31.07
2023-01-23T01:35:09.725Z,31.57
2023-01-23T01:37:37.721Z,33.10
2023-01-23T01:40:06.567Z,33.07
2023-01-23T01:42:40.176Z,41.47
2023-01-23T01:45:07.606Z,33.33
2023-01-23T01:47:34.875Z,33.70
2023-01-23T01:50:04.757Z,31.40
2023-01-23T01:52:31.478Z,35.53
2023-01-23T01:55:03.004Z,35.50
2023-01-23T01:57:31.091Z,33.23
2023-01-23T02:00:17.099Z,32.07
2023-01-23T02:02:51.263Z,36.07
2023-01-23T02:05:22.039Z,34.60
2023-01-23T02:07:54.649Z,35.30
2023-01-23T02:10:22.560Z,36.47
2023-01-23T02:12:50.766Z,37.43
2023-01-23T02:15:18.523Z,38.63
2023-01-23T02:17:47.126Z,37.63
2023-01-23T02:20:24.054Z,36.00
2023-01-23T02:22:55.876Z,38.33
2023-01-23T02:25:42.830Z,31.60
2023-01-23T02:28:14.997Z,33.57
2023-01-23T02:30:46.721Z,33.63
2023-01-23T02:33:25.218Z,40.90
2023-01-23T02:35:51.857Z,37.40
2023-01-23T02:38:22.555Z,34.23
2023-01-23T02:40:49.209Z,30.90
2023-01-23T02:43:19.891Z,36.80
2023-01-23T02:45:46.799Z,35.50
2023-01-23T02:48:13.871Z,33.80
2023-01-23T02:50:40.984Z,37.17
2023-01-23T02:53:07.638Z,37.00
2023-01-23T02:55:34.532Z,35.30
2023-01-23T02:58:20.327Z,38.23
2023-01-23T03:00:47.768Z,39.20
2023-01-23T03:03:15.984Z,33.97
2023-01-23T03:05:42.724Z,37.27
2023-01-23T03:08:09.423Z,36.47
2023-01-23T03:10:36.209Z,34.13
2023-01-23T03:13:04.616Z,33.23
2023-01-23T03:15:31.571Z,39.43
2023-01-23T03:17:58.259Z,29.70
2023-01-23T03:20:26.800Z,37.70
2023-01-23T03:22:54.072Z,32.47
2023-01-23T03:25:20.816Z,40.43
2023-01-23T03:27:47.876Z,37.60
2023-01-23T03:30:16.950Z,39.43
2023-01-23T03:32:44.820Z,37.60
2023-01-23T03:35:16.499Z,39.33
2023-01-23T03:37:44.221Z,37.13
2023-01-23T03:40:43.021Z,33.90
2023-01-23T03:43:10.778Z,36.30
2023-01-23T03:45:37.444Z,38.33
2023-01-23T03:48:04.193Z,38.93
2023-01-23T03:50:30.888Z,37.27
2023-01-23T03:52:57.536Z,36.20
2023-01-23T03:55:24.178Z,36.53
2023-01-23T03:57:50.899Z,41.17
2023-01-23T04:00:18.372Z,35.77
2023-01-23T04:02:45.206Z,40.57
2023-01-23T04:05:11.914Z,38.30
2023-01-23T04:07:38.640Z,35.07
2023-01-23T04:10:05.587Z,37.03
2023-01-23T04:12:32.244Z,35.53
2023-01-23T04:14:58.900Z,38.47
2023-01-23T04:17:25.645Z,37.63
2023-01-23T04:19:52.288Z,35.80
2023-01-23T04:22:18.936Z,39.07
2023-01-23T04:24:45.610Z,37.63
2023-01-23T04:27:12.294Z,39.40
2023-01-23T04:29:38.990Z,35.97
2023-01-23T04:32:05.724Z,35.30
2023-01-23T04:34:32.438Z,39.80
2023-01-23T04:36:59.468Z,35.70
2023-01-23T04:39:26.278Z,38.13
2023-01-23T04:41:52.941Z,34.53
2023-01-23T04:44:22.744Z,40.67
2023-01-23T04:46:53.159Z,37.27
2023-01-23T04:49:24.191Z,37.23
2023-01-23T04:51:52.193Z,37.57
2023-01-23T04:54:19.805Z,35.53
2023-01-23T04:56:46.993Z,36.07
2023-01-23T04:59:15.848Z,34.67
2023-01-23T05:01:43.206Z,38.00
2023-01-23T05:04:09.920Z,34.07
2023-01-23T05:06:36.713Z,33.87
2023-01-23T05:09:03.418Z,34.77
2023-01-23T05:11:30.533Z,39.47
2023-01-23T05:13:57.245Z,35.93
2023-01-23T05:16:23.895Z,34.97
2023-01-23T05:18:50.559Z,36.53
2023-01-23T05:21:17.216Z,34.03
2023-01-23T05:23:43.866Z,36.13
2023-01-23T05:26:10.536Z,35.00
2023-01-23T05:28:37.239Z,37.80
2023-01-23T05:31:04.127Z,36.87
2023-01-23T05:33:30.956Z,37.13
2023-01-23T05:36:01.189Z,31.37
2023-01-23T05:38:27.942Z,43.10
2023-01-23T05:40:54.597Z,35.53
2023-01-23T05:43:21.277Z,38.90
2023-01-23T05:45:47.957Z,39.13
2023-01-23T05:48:15.072Z,37.40
2023-01-23T05:50:41.809Z,36.30
2023-01-23T05:53:08.468Z,41.53
2023-01-23T05:55:37.201Z,32.47
2023-01-23T05:58:03.977Z,35.83
2023-01-23T06:00:30.645Z,40.50
2023-01-23T06:02:57.445Z,41.37
2023-01-23T06:05:24.157Z,38.60
2023-01-23T06:07:50.911Z,41.27
2023-01-23T06:10:18.090Z,42.77
2023-01-23T06:12:44.891Z,40.87
2023-01-23T06:15:12.038Z,37.83
2023-01-23T06:17:38.825Z,36.40
2023-01-23T06:20:06.058Z,39.23
2023-01-23T06:22:32.839Z,44.67
2023-01-23T06:24:59.480Z,39.00
2023-01-23T06:27:26.210Z,43.20
2023-01-23T06:29:52.935Z,44.53
2023-01-23T06:32:19.599Z,41.50
2023-01-23T06:34:46.278Z,38.73
2023-01-23T06:37:12.895Z,46.23
2023-01-23T06:39:39.645Z,45.60
2023-01-23T06:42:09.812Z,41.63
2023-01-23T06:44:37.271Z,44.97
2023-01-23T06:47:04.274Z,39.97
2023-01-23T06:49:31.056Z,46.37
2023-01-23T06:51:57.858Z,49.00
2023-01-23T06:54:24.566Z,44.80
2023-01-23T06:56:51.607Z,51.17
2023-01-23T06:59:18.264Z,43.80
2023-01-23T07:01:45.000Z,46.97
2023-01-23T07:04:11.685Z,44.10
2023-01-23T07:06:38.454Z,36.93
2023-01-23T07:09:05.118Z,41.27
2023-01-23T07:11:31.771Z,43.77
2023-01-23T07:13:58.815Z,46.47
2023-01-23T07:16:25.573Z,47.53
2023-01-23T07:18:52.406Z,42.13
2023-01-23T07:21:19.072Z,44.93
2023-01-23T07:23:45.695Z,46.80
2023-01-23T07:26:12.628Z,46.17
2023-01-23T07:28:40.003Z,45.03
2023-01-23T07:31:06.955Z,46.60
2023-01-23T07:33:33.873Z,46.17
2023-01-23T07:36:00.613Z,54.17
2023-01-23T07:38:28.005Z,47.00
2023-01-23T07:40:58.237Z,52.17
2023-01-23T07:43:25.238Z,46.30
2023-01-23T07:45:52.191Z,48.43
2023-01-23T07:48:18.866Z,45.50
2023-01-23T07:50:45.512Z,51.40
2023-01-23T07:53:12.148Z,48.37
2023-01-23T07:55:39.150Z,54.87
2023-01-23T07:58:05.856Z,46.87
2023-01-23T08:00:32.746Z,54.03
2023-01-23T08:02:59.462Z,56.37
2023-01-23T08:05:26.322Z,48.43
2023-01-23T08:08:07.372Z,47.73
2023-01-23T08:10:39.121Z,48.20
2023-01-23T08:13:05.786Z,48.00
2023-01-23T08:15:32.490Z,50.00
2023-01-23T08:17:59.122Z,50.83
2023-01-23T08:20:25.797Z,51.20
2023-01-23T08:22:52.473Z,54.13
2023-01-23T08:25:19.209Z,48.37
2023-01-23T08:27:45.915Z,48.03
2023-01-23T08:30:12.893Z,49.63
2023-01-23T08:32:39.550Z,52.27
2023-01-23T08:35:06.611Z,43.63
2023-01-23T08:37:34.409Z,45.63
2023-01-23T08:40:01.145Z,44.90
2023-01-23T08:42:28.099Z,47.97
2023-01-23T08:44:55.547Z,46.93
2023-01-23T08:47:22.283Z,53.87
2023-01-23T08:49:48.941Z,43.43
2023-01-23T08:52:15.682Z,44.90
2023-01-23T08:54:42.323Z,42.97
2023-01-23T08:57:09.065Z,45.00
2023-01-23T08:59:35.805Z,48.40
2023-01-23T09:02:02.587Z,42.70
2023-01-23T09:04:29.358Z,47.70
2023-01-23T09:06:56.006Z,41.50
2023-01-23T09:09:22.743Z,45.30
2023-01-23T09:11:49.378Z,48.07
2023-01-23T09:14:16.065Z,40.93
2023-01-23T09:16:42.872Z,45.17
2023-01-23T09:19:11.971Z,45.87
2023-01-23T09:21:39.009Z,46.53
2023-01-23T09:24:05.959Z,42.53
2023-01-23T09:26:32.652Z,44.67
2023-01-23T09:28:59.282Z,38.03
2023-01-23T09:31:26.080Z,39.73
2023-01-23T09:33:52.849Z,40.30
2023-01-23T09:36:23.403Z,41.20
2023-01-23T09:38:54.190Z,45.33
2023-01-23T09:41:25.480Z,40.70
2023-01-23T09:44:07.783Z,43.40
2023-01-23T09:46:54.837Z,38.93
2023-01-23T09:49:28.088Z,42.63
2023-01-23T09:52:11.244Z,42.27
2023-01-23T09:54:47.059Z,41.23
2023-01-23T09:57:21.060Z,40.13
2023-01-23T10:00:04.905Z,38.40
2023-01-23T10:02:31.633Z,37.00
2023-01-23T10:04:59.716Z,35.37
2023-01-23T10:07:38.199Z,35.00
2023-01-23T10:10:18.013Z,36.97
2023-01-23T10:12:54.953Z,34.63
2023-01-23T10:15:43.075Z,40.27
2023-01-23T10:18:47.447Z,37.07
2023-01-23T10:21:52.424Z,39.67
2023-01-23T10:24:40.626Z,34.60
2023-01-23T10:27:41.563Z,36.50
2023-01-23T10:30:29.727Z,36.50
2023-01-23T10:33:01.639Z,32.77
2023-01-23T10:35:50.953Z,38.10
2023-01-23T10:38:25.588Z,36.43
2023-01-23T10:41:11.147Z,34.53
2023-01-23T10:43:38.164Z,32.80
2023-01-23T10:46:21.409Z,30.97
2023-01-23T10:48:54.867Z,30.43
2023-01-23T10:51:33.280Z,30.73
2023-01-23T10:54:31.438Z,34.60
2023-01-23T10:57:18.632Z,34.30
2023-01-23T11:00:04.311Z,29.17
2023-01-23T11:02:34.539Z,33.43
2023-01-23T11:05:04.187Z,31.40
2023-01-23T11:07:36.711Z,30.57
2023-01-23T11:10:21.427Z,28.27
2023-01-23T11:12:50.732Z,30.37
2023-01-23T11:15:25.861Z,30.43
2023-01-23T11:17:55.025Z,33.27
2023-01-23T11:20:31.869Z,35.20
2023-01-23T11:23:01.441Z,31.40
2023-01-23T11:25:37.927Z,32.20
2023-01-23T11:28:18.891Z,34.90
2023-01-23T11:30:50.413Z,32.83
2023-01-23T11:33:47.781Z,33.70
2023-01-23T11:36:17.314Z,31.33
2023-01-23T11:39:04.959Z,28.80
2023-01-23T11:41:34.262Z,32.43
2023-01-23T11:44:07.867Z,35.43
2023-01-23T11:47:13.599Z,29.63
2023-01-23T11:50:10.816Z,35.17
2023-01-23T11:52:53.585Z,33.17
2023-01-23T11:55:34.963Z,33.87
2023-01-23T11:58:32.139Z,29.37
2023-01-23T12:01:19.345Z,32.13
2023-01-23T12:04:18.569Z,32.20
2023-01-23T12:07:08.578Z,31.10
2023-01-23T12:09:43.045Z,31.23
2023-01-23T12:12:26.190Z,32.00
2023-01-23T12:15:05.819Z,29.67
2023-01-23T12:17:41.327Z,29.70
2023-01-23T12:20:37.914Z,29.27
2023-01-23T12:23:27.851Z,28.07
2023-01-23T12:26:11.909Z,31.07
2023-01-23T12:29:00.287Z,27.67
2023-01-23T12:31:38.145Z,27.50
2023-01-23T12:34:36.897Z,30.80
2023-01-23T12:37:29.965Z,28.30
2023-01-23T12:40:10.058Z,32.23
2023-01-23T12:42:54.960Z,29.00
2023-01-23T12:45:27.671Z,28.17
2023-01-23T12:48:12.596Z,29.03
2023-01-23T12:51:05.769Z,28.10
2023-01-23T12:53:37.412Z,27.20
2023-01-23T12:56:27.914Z,26.43
2023-01-23T12:59:48.623Z,28.27
2023-01-23T13:02:29.997Z,25.20
2023-01-23T13:05:27.579Z,26.57
2023-01-23T13:07:57.015Z,27.23
2023-01-23T13:11:03.392Z,25.60
2023-01-23T13:13:30.649Z,26.37
2023-01-23T13:16:15.629Z,25.90
2023-01-23T13:19:12.369Z,23.97
2023-01-23T13:21:58.006Z,23.43
2023-01-23T13:24:52.065Z,23.73
2023-01-23T13:27:36.385Z,24.97
2023-01-23T13:30:05.602Z,26.03
2023-01-23T13:32:32.424Z,24.73
2023-01-23T13:34:59.148Z,26.30
2023-01-23T13:37:38.942Z,25.23
2023-01-23T13:40:11.604Z,24.03
2023-01-23T13:42:38.303Z,23.50
2023-01-23T13:45:27.627Z,23.63
2023-01-23T14:22:35.744Z,25.07
2023-01-23T14:25:02.565Z,32.73
2023-01-23T14:27:52.147Z,32.83
2023-01-23T14:30:26.938Z,29.13
2023-01-23T14:32:54.530Z,27.70
2023-01-23T14:35:27.381Z,32.30
2023-01-23T14:37:57.073Z,32.13
2023-01-23T14:40:28.070Z,35.07
2023-01-23T14:43:10.032Z,32.77
2023-01-23T14:45:37.563Z,33.53
2023-01-23T14:48:13.692Z,34.90
2023-01-23T14:50:40.514Z,32.57
2023-01-23T14:53:13.714Z,33.73
2023-01-23T14:55:42.806Z,33.93
2023-01-23T14:58:35.787Z,36.50
2023-01-23T15:01:02.912Z,36.37
2023-01-23T15:03:36.781Z,33.83
2023-01-23T15:06:08.467Z,35.23
2023-01-23T15:08:36.687Z,35.90
2023-01-23T15:11:06.418Z,33.60
2023-01-23T15:13:40.492Z,33.80
2023-01-23T15:16:15.030Z,34.47
2023-01-23T15:18:55.783Z,35.57
2023-01-23T15:21:37.482Z,37.43
2023-01-23T15:24:13.328Z,37.03
2023-01-23T15:26:56.693Z,36.47
2023-01-23T15:29:23.617Z,37.23
2023-01-23T15:31:52.533Z,38.53
2023-01-23T15:34:25.855Z,38.37
2023-01-23T15:37:05.403Z,36.17
2023-01-23T15:39:54.587Z,36.50
2023-01-23T15:42:30.288Z,41.23
2023-01-23T15:45:01.188Z,35.50
2023-01-23T15:47:32.204Z,35.93
2023-01-23T15:50:01.672Z,35.57
2023-01-23T15:52:46.600Z,38.10
2023-01-23T15:55:13.768Z,33.47
2023-01-23T15:57:41.855Z,37.87
2023-01-23T16:00:24.663Z,36.03
2023-01-23T16:02:57.490Z,37.00
2023-01-23T16:05:27.481Z,37.57
2023-01-23T16:07:55.870Z,34.80
2023-01-23T16:10:24.668Z,36.47
2023-01-23T16:12:54.056Z,38.20
2023-01-23T16:15:26.729Z,31.87
2023-01-23T16:17:54.038Z,31.40
2023-01-23T16:20:23.394Z,34.17
2023-01-23T16:22:52.632Z,32.17
2023-01-23T16:25:42.934Z,38.93
2023-01-23T16:28:15.341Z,36.23
2023-01-23T16:30:42.342Z,36.83
2023-01-23T16:33:09.474Z,36.50
2023-01-23T16:35:36.495Z,35.30
2023-01-23T16:38:03.541Z,37.27
2023-01-23T16:40:31.117Z,33.83
2023-01-23T16:42:58.316Z,37.57
2023-01-23T16:45:28.706Z,32.73
2023-01-23T16:47:55.504Z,33.43
2023-01-23T16:50:30.333Z,35.10
2023-01-23T16:53:03.068Z,34.27
2023-01-23T16:55:39.722Z,37.83
2023-01-23T16:58:08.367Z,36.70
2023-01-23T17:00:35.855Z,34.13
2023-01-23T17:03:08.041Z,34.90
2023-01-23T17:05:34.673Z,36.17
2023-01-23T17:08:02.669Z,37.93
2023-01-23T17:10:38.023Z,39.97
2023-01-23T17:13:12.125Z,36.97
2023-01-23T17:15:38.787Z,43.27
2023-01-23T17:18:05.608Z,35.80
2023-01-23T17:20:32.380Z,43.13
2023-01-23T17:22:59.138Z,39.43
2023-01-23T17:25:27.063Z,37.00
2023-01-23T17:28:11.613Z,39.60
2023-01-23T17:30:40.851Z,39.67
2023-01-23T17:33:27.466Z,38.27
2023-01-23T17:35:54.379Z,35.13
2023-01-23T17:38:23.723Z,41.77
2023-01-23T17:40:50.928Z,38.27
2023-01-23T17:43:20.051Z,36.40
2023-01-23T17:45:50.268Z,36.70
2023-01-23T17:48:22.204Z,37.27
2023-01-23T17:50:48.937Z,41.63
2023-01-23T17:53:16.921Z,35.90
2023-01-23T17:55:47.961Z,37.60
2023-01-23T17:58:15.426Z,37.67
2023-01-23T18:00:43.691Z,35.80
2023-01-23T18:03:17.119Z,36.33
2023-01-23T18:05:43.884Z,37.13
2023-01-23T18:08:14.904Z,37.57
2023-01-23T18:10:44.760Z,33.80
2023-01-23T18:13:32.854Z,35.70
2023-01-23T18:16:10.392Z,34.23
2023-01-23T18:18:39.918Z,34.47
2023-01-23T18:21:13.881Z,31.70
2023-01-23T18:23:41.057Z,38.93
2023-01-23T18:26:27.926Z,37.77
2023-01-23T18:29:09.777Z,34.10
2023-01-23T18:31:36.634Z,35.10
2023-01-23T18:34:15.161Z,31.13
2023-01-23T18:36:48.025Z,33.80
2023-01-23T18:39:34.053Z,33.37
2023-01-23T18:42:15.507Z,30.70
2023-01-23T18:45:09.621Z,34.53
2023-01-23T18:47:36.683Z,34.80
2023-01-23T18:50:03.890Z,36.17
2023-01-23T18:52:54.879Z,34.83
2023-01-23T18:55:32.618Z,34.87
2023-01-23T18:58:27.006Z,36.57
2023-01-23T19:01:13.449Z,31.20
2023-01-23T19:03:44.661Z,30.07
2023-01-23T19:06:34.882Z,32.53
2023-01-23T19:09:01.920Z,35.27
2023-01-23T19:11:31.811Z,31.47
2023-01-23T19:14:14.777Z,30.27
2023-01-23T19:16:49.006Z,34.60
2023-01-23T19:19:40.263Z,34.97
2023-01-23T19:22:12.257Z,33.90
2023-01-23T19:24:39.458Z,31.70
2023-01-23T19:27:25.721Z,29.77
2023-01-23T19:29:52.540Z,30.33
2023-01-23T19:32:19.622Z,26.70
2023-01-23T19:34:46.265Z,29.20
2023-01-23T19:37:13.961Z,30.10
2023-01-23T19:39:40.861Z,26.30
2023-01-23T19:42:14.355Z,30.30
2023-01-23T19:44:41.790Z,30.90
2023-01-23T19:47:08.912Z,32.43
2023-01-23T19:49:35.637Z,31.63
2023-01-23T19:52:02.305Z,31.13
2023-01-23T19:54:29.047Z,31.67
2023-01-23T19:56:55.780Z,32.83
2023-01-23T19:59:22.539Z,31.73
2023-01-23T20:01:51.042Z,33.50
2023-01-23T20:04:20.705Z,29.77
2023-01-23T20:06:53.949Z,32.87
2023-01-23T20:09:21.045Z,31.93
2023-01-23T20:11:48.433Z,28.13
2023-01-23T20:14:15.160Z,30.63
2023-01-23T20:16:43.181Z,32.80
2023-01-23T20:19:14.755Z,30.37
2023-01-23T20:21:41.964Z,29.00
2023-01-23T20:24:08.843Z,30.83
2023-01-23T20:26:36.089Z,28.33
2023-01-23T20:29:04.049Z,28.03
2023-01-23T20:31:31.079Z,30.77
2023-01-23T20:33:57.838Z,29.97
2023-01-23T20:36:24.497Z,30.07
2023-01-23T20:38:51.125Z,30.70
2023-01-23T20:41:19.549Z,30.37
2023-01-23T20:43:47.286Z,29.90
2023-01-23T20:46:16.270Z,29.47
2023-01-23T20:48:44.258Z,25.50
2023-01-23T20:51:12.444Z,30.43
2023-01-23T20:53:40.057Z,26.47
2023-01-23T20:56:12.384Z,25.90
2023-01-23T20:59:00.851Z,25.77
2023-01-23T21:01:30.749Z,29.10
2023-01-23T21:03:57.487Z,29.50
2023-01-23T21:06:24.279Z,25.83
2023-01-23T21:08:50.944Z,28.00
2023-01-23T21:11:19.704Z,27.77
2023-01-23T21:13:51.640Z,28.43
2023-01-23T21:16:20.303Z,25.77
2023-01-23T21:18:48.050Z,26.60
2023-01-23T21:21:17.500Z,24.80
2023-01-23T21:23:48.615Z,25.27
2023-01-23T21:26:17.063Z,22.63
2023-01-23T21:28:43.864Z,28.13
2023-01-23T21:31:13.501Z,27.63
2023-01-23T21:33:44.120Z,25.53
2023-01-23T21:36:13.184Z,27.30
2023-01-23T21:38:39.983Z,29.30
2023-01-23T21:41:06.928Z,28.03
2023-01-23T21:43:34.526Z,26.27
2023-01-23T21:46:01.659Z,26.43
2023-01-23T21:48:29.690Z,27.50
2023-01-23T21:51:08.215Z,29.53
2023-01-23T21:53:37.143Z,28.73
2023-01-23T21:56:04.921Z,29.13
2023-01-23T21:58:31.864Z,28.80
2023-01-23T22:01:18.878Z,28.73
2023-01-23T22:03:46.097Z,32.93
2023-01-23T22:06:16.003Z,29.10
2023-01-23T22:08:43.023Z,26.83
2023-01-23T22:11:10.569Z,24.53
2023-01-23T22:13:37.909Z,25.80
2023-01-23T22:16:05.569Z,22.37
2023-01-23T22:18:33.292Z,24.17
2023-01-23T22:21:02.572Z,24.17
2023-01-23T22:23:30.131Z,25.63
2023-01-23T22:25:59.340Z,25.00
2023-01-23T22:28:26.261Z,24.00
2023-01-23T22:30:53.253Z,24.53
2023-01-23T22:33:22.336Z,24.23
2023-01-23T22:35:49.339Z,24.60
2023-01-23T22:38:16.419Z,23.03
2023-01-23T22:40:43.285Z,27.63
2023-01-23T22:43:11.041Z,23.47
2023-01-23T22:45:37.859Z,21.90
2023-01-23T22:48:04.855Z,25.80
2023-01-23T22:50:31.534Z,22.70
2023-01-23T22:52:58.310Z,22.57
2023-01-23T22:55:24.956Z,22.47
2023-01-23T22:57:53.248Z,22.50
2023-01-23T23:00:20.366Z,25.23
2023-01-23T23:02:47.149Z,26.47
2023-01-23T23:05:14.120Z,22.00
2023-01-23T23:07:40.808Z,23.10
2023-01-23T23:10:09.489Z,24.23
2023-01-23T23:12:36.243Z,25.63
2023-01-23T23:15:03.254Z,23.27
2023-01-23T23:17:30.373Z,27.47
2023-01-23T23:19:57.185Z,25.93
2023-01-23T23:22:23.918Z,24.80
2023-01-23T23:24:50.640Z,25.63
2023-01-23T23:27:17.584Z,23.17
2023-01-23T23:29:44.232Z,26.67
2023-01-23T23:32:10.964Z,26.83
2023-01-23T23:34:37.705Z,25.17
2023-01-23T23:37:04.532Z,25.80
2023-01-23T23:39:31.200Z,25.57
2023-01-23T23:41:58.657Z,26.20
2023-01-23T23:44:25.423Z,22.00
2023-01-23T23:46:52.179Z,25.53
2023-01-23T23:49:18.872Z,24.03
2023-01-23T23:51:45.655Z,27.00
2023-01-23T23:54:12.357Z,23.87
2023-01-23T23:56:39.312Z,25.97
2023-01-23T23:59:06.066Z,25.67
